Time;durP1;ratioP1;P1;durP2;ratioP2;P2;SDS_P1;SDS_P2;PMS_P1;PMS_P2;Temp;Humidity;BMP_temperature;BMP_pressure;BME280_temperature;BME280_humidity;BME280_pressure;Samples;Min_cycle;Max_cycle;Signal;HPM_P1;HPM_P2
2022/11/05 00:09:59;;;;;;;;;;;;;;;11.69;69.84;98822.97;4431972;32;34366;-62
2022/11/05 00:17:58;;;;;;;;;;;;;;;12.28;68.53;98809.22;4439134;32;35402;-64
2022/11/05 00:20:26;;;;;;;;;;;;;;;12.30;68.32;98809.94;4440528;32;32357;-64
2022/11/05 00:25:55;;;;;;;;;;;;;;;12.76;66.24;98793.84;4443376;32;35818;-63
2022/11/05 00:28:22;;;;;;;;;;;;;;;12.49;66.84;98795.56;4443282;32;34551;-63
2022/11/05 00:30:50;;;;;;;;;;;;;;;12.00;68.25;98800.31;4441913;32;32242;-63
2022/11/05 00:33:17;;;;;;;;;;;;;;;11.92;68.86;98799.38;4448936;32;34060;-64
2022/11/05 00:35:44;;;;;;;;;;;;;;;12.19;67.86;98796.69;4446389;32;33692;-63
2022/11/05 00:38:12;;;;;;;;;;;;;;;11.37;70.61;98805.37;4447709;32;34593;-64
2022/11/05 00:40:39;;;;;;;;;;;;;;;11.70;69.69;98805.88;4449548;32;33740;-65
2022/11/05 00:45:52;;;;;;;;;;;;;;;10.92;71.65;98806.78;4442324;32;33144;-63
2022/11/05 00:51:06;;;;;;;;;;;;;;;11.57;69.32;98806.19;4441603;32;34689;-64
2022/11/05 00:53:34;;;;;;;;;;;;;;;11.83;68.61;98804.56;4437022;32;33926;-62
2022/11/05 00:56:01;;;;;;;;;;;;;;;12.09;67.56;98793.22;4446163;32;34247;-64
2022/11/05 00:58:28;;;;;;;;;;;;;;;11.89;68.01;98789.78;4444179;32;34349;-64
2022/11/05 01:00:56;;;;;;;;;;;;;;;11.42;69.68;98792.38;4444052;32;32192;-64
2022/11/05 01:03:25;;;;;;;;;;;;;;;11.35;70.24;98797.47;4441438;32;32797;-64
2022/11/05 01:05:53;;;;;;;;;;;;;;;12.09;67.46;98798.59;4447250;32;34589;-62
2022/11/05 01:08:21;;;;;;;;;;;;;;;11.51;69.48;98806.75;4444225;32;35481;-64
2022/11/05 01:10:49;;;;;;;;;;;;;;;11.93;67.96;98806.41;4441788;32;34598;-64
2022/11/05 01:13:18;;;;;;;;;;;;;;;11.84;67.88;98803.59;4446110;32;33917;-62
2022/11/05 01:15:46;;;;;;;;;;;;;;;11.12;70.92;98812.16;4443493;32;32781;-62
2022/11/05 01:18:14;;;;;;;;;;;;;;;11.61;69.59;98816.47;4443190;32;34203;-64
2022/11/05 01:20:41;;;;;;;;;;;;;;;11.79;68.38;98821.94;4442133;32;32680;-63
2022/11/05 01:23:08;;;;;;;;;;;;;;;11.72;68.54;98820.84;4448945;32;34354;-64
2022/11/05 01:25:42;;;;;;;;;;;;;;;11.85;68.17;98816.03;4443465;32;36503;-62
2022/11/05 01:28:10;;;;;;;;;;;;;;;11.10;71.31;98811.44;4448538;32;34394;-62
2022/11/05 01:30:37;;;;;;;;;;;;;;;10.78;72.37;98812.53;4445339;32;34452;-64
2022/11/05 01:33:04;;;;;;;;;;;;;;;11.41;69.91;98814.81;4442539;32;33955;-62
2022/11/05 01:35:32;;;;;;;;;;;;;;;11.41;70.07;98820.16;4442820;32;35599;-62
2022/11/05 01:37:59;;;;;;;;;;;;;;;10.92;71.68;98808.62;4442874;32;34361;-62
2022/11/05 01:40:26;;;;;;;;;;;;;;;10.85;72.35;98812.81;4437114;32;34226;-64
2022/11/05 01:42:54;;;;;;;;;;;;;;;10.80;72.58;98804.37;4446824;32;34373;-64
2022/11/05 01:45:22;;;;;;;;;;;;;;;10.64;73.28;98807.59;4446332;32;34339;-64
2022/11/05 01:47:49;;;;;;;;;;;;;;;11.47;70.45;98824.97;4438187;32;34328;-65
2022/11/05 01:50:20;;;;;;;;;;;;;;;11.84;68.75;98832.22;4443286;32;32830;-63
2022/11/05 01:52:48;;;;;;;;;;;;;;;11.73;69.23;98841.28;4447847;32;33547;-65
2022/11/05 01:55:15;;;;;;;;;;;;;;;11.24;71.85;98842.31;4430786;32;34046;-65
2022/11/05 01:57:43;;;;;;;;;;;;;;;11.44;70.18;98849.34;4447748;32;35511;-63
2022/11/05 02:00:10;;;;;;;;;;;;;;;11.69;69.62;98839.03;4446385;32;31509;-65
2022/11/05 02:02:38;;;;;;;;;;;;;;;11.15;71.65;98839.50;4439835;32;34190;-63
2022/11/05 02:05:09;;;;;;;;;;;;;;;10.98;72.28;98824.12;4444934;32;33721;-64
2022/11/05 02:07:36;;;;;;;;;;;;;;;11.14;71.67;98832.47;4441238;32;35459;-63
2022/11/05 02:10:07;;;;;;;;;;;;;;;10.63;73.63;98828.16;4440937;32;33729;-65
2022/11/05 02:12:35;;;;;;;;;;;;;;;10.80;73.00;98826.63;4431089;32;33775;-62
2022/11/05 02:15:02;;;;;;;;;;;;;;;10.25;74.60;98834.19;4448818;32;32926;-63
2022/11/05 02:17:36;;;;;;;;;;;;;;;10.35;74.48;98837.78;4447577;32;33166;-64
2022/11/05 02:20:06;;;;;;;;;;;;;;;10.39;73.92;98838.34;4444364;32;31530;-62
2022/11/05 02:22:51;;;;;;;;;;;;;;;10.51;73.43;98839.09;4437330;32;33066;-62
2022/11/05 02:25:31;;;;;;;;;;;;;;;10.71;73.50;98843.50;4438348;32;34136;-62
2022/11/05 02:28:06;;;;;;;;;;;;;;;10.40;74.28;98850.75;4447745;32;35062;-64
2022/11/05 02:30:33;;;;;;;;;;;;;;;10.23;73.97;98839.66;4433554;32;34655;-62
2022/11/05 02:33:00;;;;;;;;;;;;;;;10.47;73.97;98843.88;4444520;32;34477;-64
2022/11/05 02:35:30;;;;;;;;;;;;;;;10.34;74.43;98843.28;4450546;32;34330;-64
2022/11/05 02:38:12;;;;;;;;;;;;;;;10.68;73.27;98841.94;4445575;32;34314;-63
2022/11/05 02:40:49;;;;;;;;;;;;;;;9.98;75.88;98837.44;4434819;32;33421;-63
2022/11/05 02:43:37;;;;;;;;;;;;;;;10.46;73.67;98839.50;4448780;32;34116;-64
2022/11/05 02:46:25;;;;;;;;;;;;;;;9.92;75.86;98841.50;4430560;32;34030;-62
2022/11/05 02:49:02;;;;;;;;;;;;;;;10.10;75.16;98838.22;4434436;32;34216;-64
2022/11/05 02:51:49;;;;;;;;;;;;;;;10.42;73.76;98844.28;4438002;32;33436;-64
2022/11/05 02:54:20;;;;;;;;;;;;;;;10.01;75.83;98850.53;4446511;32;34401;-62
2022/11/05 02:56:48;;;;;;;;;;;;;;;10.24;74.39;98851.19;4447028;32;33829;-63
2022/11/05 02:59:15;;;;;;;;;;;;;;;10.42;74.54;98852.31;4445504;32;34661;-65
2022/11/05 03:01:43;;;;;;;;;;;;;;;10.19;75.16;98856.13;4443798;32;32396;-63
2022/11/05 03:04:10;;;;;;;;;;;;;;;10.34;74.46;98851.31;4431549;32;32754;-63
2022/11/05 03:06:41;;;;;;;;;;;;;;;10.58;73.30;98861.66;4447502;32;34952;-63
2022/11/05 03:09:08;;;;;;;;;;;;;;;10.39;74.03;98855.25;4449077;32;33599;-65
2022/11/05 03:11:39;;;;;;;;;;;;;;;10.34;74.02;98849.47;4444108;32;32183;-65
2022/11/05 03:14:36;;;;;;;;;;;;;;;10.57;72.99;98857.28;4430437;32;35219;-63
2022/11/05 03:17:22;;;;;;;;;;;;;;;10.13;73.88;98852.16;4443154;32;35030;-64
2022/11/05 03:19:53;;;;;;;;;;;;;;;10.38;73.83;98858.06;4439169;32;34861;-64
2022/11/05 03:22:22;;;;;;;;;;;;;;;11.32;70.39;98855.84;4443298;32;33833;-63
2022/11/05 03:24:51;;;;;;;;;;;;;;;10.60;73.19;98857.03;4447046;32;33268;-63
2022/11/05 03:27:19;;;;;;;;;;;;;;;10.83;71.59;98863.84;4431959;32;35130;-64
2022/11/05 03:29:48;;;;;;;;;;;;;;;10.92;71.50;98868.38;4431565;32;34456;-63
2022/11/05 03:32:15;;;;;;;;;;;;;;;11.51;69.58;98869.25;4429666;32;33602;-66
2022/11/05 03:34:46;;;;;;;;;;;;;;;11.10;70.59;98873.87;4443175;32;34179;-64
2022/11/05 03:37:14;;;;;;;;;;;;;;;11.75;68.44;98871.47;4436823;32;34335;-64
2022/11/05 03:39:42;;;;;;;;;;;;;;;11.48;69.17;98874.03;4434590;32;34403;-64
2022/11/05 03:42:10;;;;;;;;;;;;;;;11.33;69.20;98877.16;4450274;32;32199;-64
2022/11/05 03:44:38;;;;;;;;;;;;;;;11.45;68.74;98871.63;4449553;32;33997;-65
2022/11/05 03:47:07;;;;;;;;;;;;;;;11.09;70.40;98879.38;4432268;32;32716;-63
2022/11/05 03:49:35;;;;;;;;;;;;;;;11.01;70.50;98880.09;4431080;32;35078;-64
2022/11/05 03:52:14;;;;;;;;;;;;;;;11.04;70.13;98881.63;4424530;32;33438;-64
2022/11/05 03:54:41;;;;;;;;;;;;;;;11.09;70.04;98872.19;4442793;32;32974;-64
2022/11/05 03:57:13;;;;;;;;;;;;;;;10.48;72.43;98878.50;4449320;32;34368;-63
2022/11/05 03:59:42;;;;;;;;;;;;;;;10.63;72.08;98886.19;4429992;32;34430;-64
2022/11/05 04:02:10;;;;;;;;;;;;;;;11.13;69.86;98889.66;4423428;32;31844;-62
2022/11/05 04:04:38;;;;;;;;;;;;;;;10.85;70.76;98883.28;4442053;32;32808;-64
2022/11/05 04:15:23;;;;;;;;;;;;;;;10.51;71.65;98866.69;4444483;32;35135;-64
2022/11/05 04:17:50;;;;;;;;;;;;;;;11.41;68.48;98861.19;4435860;32;34231;-62
2022/11/05 04:25:50;;;;;;;;;;;;;;;10.85;70.57;98875.25;4447542;32;34751;-65
2022/11/05 04:28:18;;;;;;;;;;;;;;;11.15;69.98;98876.16;4447441;32;33878;-62
2022/11/05 04:30:45;;;;;;;;;;;;;;;10.57;71.77;98878.69;4444033;32;34448;-72
2022/11/05 04:33:13;;;;;;;;;;;;;;;10.63;71.72;98876.31;4441646;32;35168;-62
2022/11/05 04:35:42;;;;;;;;;;;;;;;10.20;72.24;98880.03;4438408;32;33322;-65
2022/11/05 04:38:10;;;;;;;;;;;;;;;10.42;71.76;98859.50;4447229;32;34296;-64
2022/11/05 04:40:38;;;;;;;;;;;;;;;10.11;73.49;98854.12;4444148;32;35520;-62
2022/11/05 04:43:06;;;;;;;;;;;;;;;10.92;69.65;98857.66;4446707;32;33593;-63
2022/11/05 04:45:41;;;;;;;;;;;;;;;10.21;72.23;98868.38;4445541;32;34016;-62
2022/11/05 04:48:08;;;;;;;;;;;;;;;10.62;71.79;98855.03;4441995;32;32734;-65
2022/11/05 04:50:36;;;;;;;;;;;;;;;10.72;70.86;98858.59;4449799;32;35866;-63
2022/11/05 04:53:03;;;;;;;;;;;;;;;10.85;70.52;98869.03;4445958;32;34705;-64
2022/11/05 04:55:30;;;;;;;;;;;;;;;10.81;70.35;98872.97;4445583;32;33978;-64
2022/11/05 04:57:57;;;;;;;;;;;;;;;10.27;72.57;98875.03;4446921;32;35440;-64
2022/11/05 05:00:25;;;;;;;;;;;;;;;10.92;70.41;98873.72;4445890;32;34444;-67
2022/11/05 05:02:52;;;;;;;;;;;;;;;11.03;69.75;98871.91;4448421;32;33411;-66
2022/11/05 05:05:21;;;;;;;;;;;;;;;10.09;73.43;98865.94;4439358;32;33898;-62
2022/11/05 05:07:48;;;;;;;;;;;;;;;11.07;70.29;98863.44;4441668;32;34224;-63
2022/11/05 05:10:16;;;;;;;;;;;;;;;10.58;70.86;98862.50;4452138;32;34522;-63
2022/11/05 05:12:43;;;;;;;;;;;;;;;9.98;73.06;98859.69;4443253;32;33020;-64
2022/11/05 05:15:10;;;;;;;;;;;;;;;10.64;71.42;98855.75;4444723;32;34854;-63
2022/11/05 05:17:38;;;;;;;;;;;;;;;11.26;68.51;98857.25;4440765;32;34814;-63
2022/11/05 05:22:54;;;;;;;;;;;;;;;11.41;68.14;98866.56;4445043;32;33603;-63
2022/11/05 05:25:21;;;;;;;;;;;;;;;11.46;67.87;98884.03;4440019;32;33362;-64
2022/11/05 05:27:48;;;;;;;;;;;;;;;10.93;70.08;98879.91;4447874;32;34330;-63
2022/11/05 05:30:16;;;;;;;;;;;;;;;10.85;70.17;98879.75;4440090;32;34631;-65
2022/11/05 05:32:43;;;;;;;;;;;;;;;11.26;68.10;98883.19;4444160;32;33508;-65
2022/11/05 05:35:10;;;;;;;;;;;;;;;11.50;67.30;98882.78;4439997;32;32641;-64
2022/11/05 05:37:38;;;;;;;;;;;;;;;11.39;67.72;98887.28;4444380;32;34306;-64
2022/11/05 05:40:05;;;;;;;;;;;;;;;11.35;68.46;98885.88;4443141;32;35660;-63
2022/11/05 05:42:33;;;;;;;;;;;;;;;10.69;70.21;98885.66;4448231;32;34761;-63
2022/11/05 05:45:08;;;;;;;;;;;;;;;10.90;68.48;98890.91;4449777;32;34256;-64
2022/11/05 05:47:35;;;;;;;;;;;;;;;10.60;70.32;98887.31;4444092;32;34217;-63
2022/11/05 05:50:02;;;;;;;;;;;;;;;10.96;68.87;98904.56;4441410;32;32712;-63
2022/11/05 05:52:30;;;;;;;;;;;;;;;11.11;68.51;98909.56;4447735;32;33400;-65
2022/11/05 05:54:57;;;;;;;;;;;;;;;10.96;69.14;98915.28;4439530;32;34882;-65
2022/11/05 05:57:24;;;;;;;;;;;;;;;10.99;69.27;98929.41;4451759;32;32619;-64
2022/11/05 05:59:52;;;;;;;;;;;;;;;11.38;67.67;98933.81;4449471;32;34467;-63
2022/11/05 06:02:19;;;;;;;;;;;;;;;11.29;67.49;98937.34;4447939;32;33662;-65
2022/11/05 06:04:47;;;;;;;;;;;;;;;11.05;68.70;98945.75;4447905;32;34421;-64
2022/11/05 06:07:14;;;;;;;;;;;;;;;11.11;68.45;98944.38;4456691;32;34623;-68
2022/11/05 06:09:41;;;;;;;;;;;;;;;11.30;67.95;98952.44;4452969;32;33217;-68
2022/11/05 06:12:08;;;;;;;;;;;;;;;10.69;69.92;98965.94;4454227;32;33639;-66
2022/11/05 06:14:36;;;;;;;;;;;;;;;11.11;68.72;98969.31;4455467;32;32780;-66
2022/11/05 06:17:03;;;;;;;;;;;;;;;11.14;68.67;98963.69;4454718;32;35276;-66
2022/11/05 06:19:30;;;;;;;;;;;;;;;11.34;68.05;98969.94;4455392;32;35427;-67
2022/11/05 06:21:57;;;;;;;;;;;;;;;11.52;67.46;98974.59;4448496;32;32259;-67
2022/11/05 06:24:25;;;;;;;;;;;;;;;11.52;66.64;98978.13;4449048;32;34159;-67
2022/11/05 06:26:52;;;;;;;;;;;;;;;11.43;67.20;98987.84;4455027;32;32924;-66
2022/11/05 06:29:19;;;;;;;;;;;;;;;10.99;68.74;98991.81;4454386;32;33862;-68
2022/11/05 06:31:46;;;;;;;;;;;;;;;10.56;70.49;98992.03;4454832;32;33605;-66
2022/11/05 06:34:14;;;;;;;;;;;;;;;10.83;69.03;98996.84;4449421;32;34171;-66
2022/11/05 06:36:41;;;;;;;;;;;;;;;11.39;67.60;98986.41;4454273;32;34817;-74
2022/11/05 06:39:09;;;;;;;;;;;;;;;11.41;68.01;98995.16;4455960;32;35054;-69
2022/11/05 06:41:36;;;;;;;;;;;;;;;11.53;67.33;99000.44;4451758;32;33332;-66
2022/11/05 06:44:23;;;;;;;;;;;;;;;11.52;67.40;98998.72;4454567;32;33950;-67
2022/11/05 06:46:51;;;;;;;;;;;;;;;11.75;66.53;99000.16;4443948;32;35519;-70
2022/11/05 06:49:18;;;;;;;;;;;;;;;11.64;66.77;99005.66;4449929;32;33157;-67
2022/11/05 06:51:45;;;;;;;;;;;;;;;11.94;66.16;99001.16;4449608;32;31974;-68
2022/11/05 06:54:13;;;;;;;;;;;;;;;11.42;66.53;99017.44;4450318;32;34841;-67
2022/11/05 06:56:40;;;;;;;;;;;;;;;11.48;66.88;99014.22;4452139;32;34365;-67
2022/11/05 06:59:07;;;;;;;;;;;;;;;11.57;66.93;99023.28;4450700;32;34130;-67
2022/11/05 07:01:36;;;;;;;;;;;;;;;11.51;67.43;99015.78;4453984;32;33545;-67
2022/11/05 07:04:03;;;;;;;;;;;;;;;11.39;68.22;99017.72;4450758;32;33850;-67
2022/11/05 07:06:30;;;;;;;;;;;;;;;11.00;69.81;99014.09;4450979;32;35414;-68
2022/11/05 07:09:03;;;;;;;;;;;;;;;11.34;67.38;99015.47;4444879;32;34213;-67
2022/11/05 07:11:30;;;;;;;;;;;;;;;11.22;67.10;99024.59;4448490;32;33824;-67
2022/11/05 07:13:58;;;;;;;;;;;;;;;11.86;65.37;99024.19;4453409;32;32616;-68
2022/11/05 07:16:25;;;;;;;;;;;;;;;11.37;67.96;99025.06;4454163;32;34268;-67
2022/11/05 07:18:54;;;;;;;;;;;;;;;12.10;65.81;99025.56;4450388;32;34209;-67
2022/11/05 07:21:21;;;;;;;;;;;;;;;12.31;65.06;99028.97;4450844;32;32996;-70
2022/11/05 07:23:49;;;;;;;;;;;;;;;11.23;67.18;99031.63;4452611;32;34194;-68
2022/11/05 07:26:16;;;;;;;;;;;;;;;11.02;69.11;99031.72;4450335;32;32870;-67
2022/11/05 07:28:44;;;;;;;;;;;;;;;11.39;68.08;99026.59;4452621;32;35449;-67
2022/11/05 07:31:11;;;;;;;;;;;;;;;11.62;66.33;99032.59;4453521;32;33411;-66
2022/11/05 07:33:38;;;;;;;;;;;;;;;11.51;66.82;99034.53;4453676;32;34272;-70
2022/11/05 07:36:06;;;;;;;;;;;;;;;11.64;67.50;99035.97;4441736;32;34266;-67
2022/11/05 07:38:33;;;;;;;;;;;;;;;11.67;66.33;99037.53;4450374;32;34215;-67
2022/11/05 07:41:00;;;;;;;;;;;;;;;12.11;64.82;99025.44;4449955;32;34686;-67
2022/11/05 07:43:28;;;;;;;;;;;;;;;12.40;63.87;99026.41;4451416;32;34208;-67
2022/11/05 07:45:55;;;;;;;;;;;;;;;11.82;66.49;99028.09;4451272;32;34272;-68
2022/11/05 07:48:22;;;;;;;;;;;;;;;11.94;65.52;99027.97;4442538;32;34662;-67
2022/11/05 07:50:50;;;;;;;;;;;;;;;11.82;66.21;99030.78;4449430;32;32325;-70
2022/11/05 07:53:19;;;;;;;;;;;;;;;11.77;66.20;99029.50;4450610;32;34090;-69
2022/11/05 07:55:46;;;;;;;;;;;;;;;11.62;67.48;99031.72;4452041;32;35295;-67
2022/11/05 07:58:13;;;;;;;;;;;;;;;12.06;65.15;99029.53;4451132;32;35205;-69
2022/11/05 08:00:41;;;;;;;;;;;;;;;11.97;65.63;99025.87;4450543;32;33504;-68
2022/11/05 08:03:10;;;;;;;;;;;;;;;11.74;66.55;99025.25;4448730;32;33948;-68
2022/11/05 08:05:39;;;;;;;;;;;;;;;12.30;65.58;99029.97;4447851;32;34041;-67
2022/11/05 08:08:07;;;;;;;;;;;;;;;11.81;65.96;99015.69;4446756;32;34365;-67
2022/11/05 08:10:35;;;;;;;;;;;;;;;12.31;64.49;99017.37;4437563;32;31987;-67
2022/11/05 08:13:02;;;;;;;;;;;;;;;11.97;66.13;99011.63;4445100;32;33033;-67
2022/11/05 08:15:29;;;;;;;;;;;;;;;12.08;65.21;99006.12;4451748;32;32949;-67
2022/11/05 08:17:58;;;;;;;;;;;;;;;12.45;64.29;99014.25;4446765;32;35353;-69
2022/11/05 08:20:25;;;;;;;;;;;;;;;12.13;64.87;99006.53;4448498;32;33680;-67
2022/11/05 08:22:53;;;;;;;;;;;;;;;11.77;65.25;98994.66;4449865;32;32643;-69
2022/11/05 08:25:21;;;;;;;;;;;;;;;11.98;65.76;99008.81;4447931;32;33128;-67
2022/11/05 08:27:53;;;;;;;;;;;;;;;12.06;65.85;99003.56;4449777;32;35521;-68
2022/11/05 08:30:21;;;;;;;;;;;;;;;12.20;64.70;98996.06;4453302;32;33663;-67
2022/11/05 08:32:48;;;;;;;;;;;;;;;12.24;64.51;99006.38;4450547;32;33980;-68
2022/11/05 08:35:15;;;;;;;;;;;;;;;12.12;65.24;99003.00;4442863;32;33248;-67
2022/11/05 08:37:43;;;;;;;;;;;;;;;12.28;64.73;99013.16;4447070;32;34653;-68
2022/11/05 08:40:10;;;;;;;;;;;;;;;12.00;65.72;99019.38;4448616;32;32147;-67
2022/11/05 08:42:38;;;;;;;;;;;;;;;11.83;66.72;99013.69;4449865;32;35287;-70
2022/11/05 08:45:05;;;;;;;;;;;;;;;11.79;65.99;99012.28;4448478;32;34122;-67
2022/11/05 08:47:33;;;;;;;;;;;;;;;11.36;68.66;99018.87;4451188;32;34296;-67
2022/11/05 08:50:00;;;;;;;;;;;;;;;11.57;67.30;99012.56;4446581;32;35289;-67
2022/11/05 08:52:27;;;;;;;;;;;;;;;11.51;66.98;99010.44;4448300;32;35140;-67
2022/11/05 08:54:55;;;;;;;;;;;;;;;12.01;66.51;99005.00;4442837;32;34172;-68
2022/11/05 08:57:22;;;;;;;;;;;;;;;11.85;66.87;99017.13;4450381;32;35511;-66
2022/11/05 08:59:49;;;;;;;;;;;;;;;11.84;65.38;99018.09;4446988;32;32900;-68
2022/11/05 09:02:17;;;;;;;;;;;;;;;12.08;66.27;99024.91;4448629;32;34297;-71
2022/11/05 09:04:44;;;;;;;;;;;;;;;12.14;64.98;99035.06;4441196;32;34497;-67
2022/11/05 09:07:12;;;;;;;;;;;;;;;12.07;65.00;99025.84;4446658;32;34444;-66
2022/11/05 09:09:39;;;;;;;;;;;;;;;11.49;66.77;99026.63;4449707;32;33492;-65
2022/11/05 09:12:06;;;;;;;;;;;;;;;11.75;67.07;99035.03;4448631;32;33941;-66
2022/11/05 09:14:39;;;;;;;;;;;;;;;11.85;66.47;99037.75;4440189;32;34571;-68
2022/11/05 09:17:14;;;;;;;;;;;;;;;12.25;64.20;99037.56;4448770;32;32919;-67
2022/11/05 09:19:42;;;;;;;;;;;;;;;11.71;66.92;99044.31;4451284;32;34700;-66
2022/11/05 09:22:11;;;;;;;;;;;;;;;12.03;65.22;99052.12;4447723;32;35152;-67
2022/11/05 09:24:39;;;;;;;;;;;;;;;11.71;67.15;99052.34;4444877;32;33811;-68
2022/11/05 09:27:10;;;;;;;;;;;;;;;11.75;66.00;99050.22;4445978;32;34255;-66
2022/11/05 09:29:38;;;;;;;;;;;;;;;11.87;66.18;99051.84;4452781;32;34145;-67
2022/11/05 09:32:05;;;;;;;;;;;;;;;11.81;66.08;99060.41;4444808;32;32715;-67
2022/11/05 09:34:33;;;;;;;;;;;;;;;12.56;64.21;99064.25;4449264;32;34145;-68
2022/11/05 09:37:00;;;;;;;;;;;;;;;12.01;66.02;99059.47;4435547;32;32633;-67
2022/11/05 09:39:27;;;;;;;;;;;;;;;12.35;65.57;99064.41;4451522;32;33490;-66
2022/11/05 09:41:56;;;;;;;;;;;;;;;11.65;67.46;99056.44;4445556;32;34152;-67
2022/11/05 09:44:25;;;;;;;;;;;;;;;11.79;66.62;99049.84;4446359;32;32940;-67
2022/11/05 09:46:53;;;;;;;;;;;;;;;12.14;65.67;99045.78;4445380;32;33175;-67
2022/11/05 09:49:41;;;;;;;;;;;;;;;12.62;64.62;99041.34;4450113;32;33652;-70
2022/11/05 09:52:31;;;;;;;;;;;;;;;12.57;64.23;99047.97;4439474;32;33939;-70
2022/11/05 09:54:59;;;;;;;;;;;;;;;12.44;64.57;99044.75;4443226;32;35494;-69
2022/11/05 09:57:27;;;;;;;;;;;;;;;12.17;66.37;99048.19;4425257;32;33324;-67
2022/11/05 09:59:56;;;;;;;;;;;;;;;12.50;64.84;99052.25;4438997;32;32408;-67
2022/11/05 10:02:28;;;;;;;;;;;;;;;12.28;65.23;99039.97;4425023;32;34303;-68
2022/11/05 10:04:57;;;;;;;;;;;;;;;12.59;65.32;99059.44;4438648;32;34400;-68
2022/11/05 10:07:30;;;;;;;;;;;;;;;12.91;63.69;99057.38;4425423;32;32525;-67
2022/11/05 10:09:58;;;;;;;;;;;;;;;12.33;65.33;99044.94;4438640;32;33383;-68
2022/11/05 10:12:38;;;;;;;;;;;;;;;13.59;61.49;99043.66;4424943;32;34057;-67
2022/11/05 10:15:05;;;;;;;;;;;;;;;12.65;64.39;99055.34;4438560;32;34448;-67
2022/11/05 10:17:34;;;;;;;;;;;;;;;12.65;64.02;99049.09;4438847;32;34392;-70
2022/11/05 10:20:05;;;;;;;;;;;;;;;12.82;64.14;99056.41;4438732;32;32168;-67
2022/11/05 10:22:32;;;;;;;;;;;;;;;13.03;62.54;99057.06;4438590;32;35305;-69
2022/11/05 10:25:00;;;;;;;;;;;;;;;12.61;64.40;99055.75;4438599;32;34349;-67
2022/11/05 10:27:27;;;;;;;;;;;;;;;13.80;60.57;99054.13;4438418;32;35508;-67
2022/11/05 10:29:54;;;;;;;;;;;;;;;13.53;60.75;99053.16;4438410;32;34480;-67
2022/11/05 10:32:22;;;;;;;;;;;;;;;13.54;61.67;99045.94;4426714;32;35332;-69
2022/11/05 10:34:49;;;;;;;;;;;;;;;13.21;62.76;99054.44;4440500;32;34423;-67
2022/11/05 10:37:16;;;;;;;;;;;;;;;13.86;60.99;99048.13;4426537;32;34444;-67
2022/11/05 10:39:44;;;;;;;;;;;;;;;12.97;63.20;99046.03;4426665;32;34530;-66
2022/11/05 10:42:17;;;;;;;;;;;;;;;13.74;60.84;99045.69;4440482;32;34167;-67
2022/11/05 10:44:56;;;;;;;;;;;;;;;13.34;62.19;99047.91;4440416;32;35064;-67
2022/11/05 10:47:36;;;;;;;;;;;;;;;13.56;61.47;99044.81;4440662;32;33893;-67
2022/11/05 10:50:15;;;;;;;;;;;;;;;13.57;60.81;99051.88;4440528;32;34069;-67
2022/11/05 10:52:54;;;;;;;;;;;;;;;13.25;61.39;99058.53;4426817;32;35281;-69
2022/11/05 10:55:24;;;;;;;;;;;;;;;13.77;60.31;99063.34;4440292;32;34011;-67
2022/11/05 10:57:51;;;;;;;;;;;;;;;13.80;60.92;99062.19;4436882;32;34379;-66
2022/11/05 11:00:23;;;;;;;;;;;;;;;13.95;60.14;99063.37;4435712;32;32283;-67
2022/11/05 11:02:57;;;;;;;;;;;;;;;12.96;63.04;99071.22;4444606;32;33198;-69
2022/11/05 11:05:26;;;;;;;;;;;;;;;12.87;63.18;99074.75;4450056;32;34345;-66
2022/11/05 11:08:09;;;;;;;;;;;;;;;13.21;62.34;99073.25;4436194;32;34218;-69
2022/11/05 11:10:41;;;;;;;;;;;;;;;13.33;61.23;99062.34;4451777;32;33957;-67
2022/11/05 11:13:19;;;;;;;;;;;;;;;13.02;62.79;99066.09;4438401;32;32681;-67
2022/11/05 11:15:49;;;;;;;;;;;;;;;12.74;63.70;99062.50;4448673;32;34262;-67
2022/11/05 11:18:30;;;;;;;;;;;;;;;13.15;62.34;99052.31;4438567;32;34296;-67
2022/11/05 11:21:06;;;;;;;;;;;;;;;13.17;62.04;99052.19;4445254;32;33852;-68
2022/11/05 11:23:37;;;;;;;;;;;;;;;13.15;62.46;99052.31;4450612;32;32291;-66
2022/11/05 11:26:04;;;;;;;;;;;;;;;13.57;62.04;99059.09;4450725;32;34195;-69
2022/11/05 11:28:34;;;;;;;;;;;;;;;13.66;61.55;99064.41;4443973;32;35812;-66
2022/11/05 11:31:08;;;;;;;;;;;;;;;13.83;61.43;99064.59;4437785;32;33137;-66
2022/11/05 11:33:36;;;;;;;;;;;;;;;13.56;62.44;99058.25;4435998;32;35211;-68
2022/11/05 11:36:04;;;;;;;;;;;;;;;13.91;60.68;99059.31;4431477;32;32660;-69
2022/11/05 11:38:32;;;;;;;;;;;;;;;13.65;61.76;99057.34;4446008;32;33177;-66
2022/11/05 11:41:23;;;;;;;;;;;;;;;13.72;61.18;99047.66;4431638;32;34733;-66
2022/11/05 11:44:01;;;;;;;;;;;;;;;13.70;61.90;99055.03;4436329;32;34266;-66
2022/11/05 11:46:30;;;;;;;;;;;;;;;13.52;61.88;99051.50;4452330;32;35456;-69
2022/11/05 11:48:58;;;;;;;;;;;;;;;13.91;60.88;99056.63;4450349;32;34298;-66
2022/11/05 11:51:35;;;;;;;;;;;;;;;13.22;62.74;99050.72;4438893;32;33671;-66
2022/11/05 11:54:03;;;;;;;;;;;;;;;13.79;61.12;99047.06;4442552;32;33942;-67
2022/11/05 11:56:41;;;;;;;;;;;;;;;13.51;62.11;99053.34;4432518;32;32915;-66
2022/11/05 11:59:18;;;;;;;;;;;;;;;13.79;61.02;99045.22;4448255;32;34404;-66
2022/11/05 12:01:52;;;;;;;;;;;;;;;13.80;61.07;99049.59;4449762;32;34150;-65
2022/11/05 12:04:37;;;;;;;;;;;;;;;13.49;62.36;99052.62;4445159;32;33177;-65
2022/11/05 12:07:23;;;;;;;;;;;;;;;13.64;62.00;99058.34;4450993;32;34296;-67
2022/11/05 12:09:53;;;;;;;;;;;;;;;13.23;63.09;99049.75;4430996;32;34392;-66
2022/11/05 12:12:23;;;;;;;;;;;;;;;13.17;63.90;99057.56;4450449;32;33441;-66
2022/11/05 12:14:59;;;;;;;;;;;;;;;13.63;61.89;99053.94;4437241;32;33203;-66
2022/11/05 12:17:29;;;;;;;;;;;;;;;13.98;61.35;99052.31;4436986;32;34152;-67
2022/11/05 12:20:00;;;;;;;;;;;;;;;14.42;60.32;99060.44;4450893;32;34157;-66
2022/11/05 12:22:30;;;;;;;;;;;;;;;13.87;61.74;99077.59;4442321;32;31747;-66
2022/11/05 12:25:16;;;;;;;;;;;;;;;13.86;62.15;99081.25;4441729;32;33749;-69
2022/11/05 12:27:43;;;;;;;;;;;;;;;13.86;62.14;99085.81;4447998;32;34218;-68
2022/11/05 12:30:13;;;;;;;;;;;;;;;13.75;61.40;99092.25;4448319;32;34503;-66
2022/11/05 12:32:48;;;;;;;;;;;;;;;14.01;60.72;99089.66;4438861;32;34167;-65
2022/11/05 12:35:34;;;;;;;;;;;;;;;13.82;61.65;99081.72;4439549;32;33983;-64
2022/11/05 12:38:08;;;;;;;;;;;;;;;13.47;62.96;99086.03;4452388;32;35270;-64
2022/11/05 12:40:36;;;;;;;;;;;;;;;14.28;60.67;99080.66;4436224;32;35835;-65
2022/11/05 12:43:15;;;;;;;;;;;;;;;14.42;60.17;99080.13;4436646;32;31678;-64
2022/11/05 12:45:50;;;;;;;;;;;;;;;13.81;61.65;99082.75;4435827;32;34021;-65
2022/11/05 12:48:36;;;;;;;;;;;;;;;13.78;61.71;99091.94;4432415;32;34287;-65
2022/11/05 12:51:09;;;;;;;;;;;;;;;14.13;60.67;99090.31;4448446;32;33930;-67
2022/11/05 12:54:03;;;;;;;;;;;;;;;14.58;59.48;99089.38;4450653;32;34998;-65
2022/11/05 12:56:35;;;;;;;;;;;;;;;13.93;61.11;99093.13;4450243;32;32861;-65
2022/11/05 12:59:11;;;;;;;;;;;;;;;14.25;60.70;99107.03;4439114;32;35761;-65
2022/11/05 13:01:40;;;;;;;;;;;;;;;14.13;60.91;99109.13;4445259;32;35133;-66
2022/11/05 13:04:13;;;;;;;;;;;;;;;14.25;60.31;99107.03;4444324;32;33410;-65
2022/11/05 13:06:41;;;;;;;;;;;;;;;14.49;59.54;99107.28;4448270;32;35016;-65
2022/11/05 13:09:14;;;;;;;;;;;;;;;13.66;61.93;99115.50;4435775;32;32379;-66
2022/11/05 13:11:41;;;;;;;;;;;;;;;14.53;59.96;99107.84;4432950;32;32535;-65
2022/11/05 13:14:16;;;;;;;;;;;;;;;14.49;60.13;99109.13;4441034;32;33812;-65
2022/11/05 13:17:01;;;;;;;;;;;;;;;13.69;62.77;99119.75;4448803;32;32537;-64
2022/11/05 13:19:31;;;;;;;;;;;;;;;13.97;61.93;99116.03;4435929;32;34886;-64
2022/11/05 13:21:59;;;;;;;;;;;;;;;13.66;62.50;99123.56;4445799;32;35356;-64
2022/11/05 13:24:27;;;;;;;;;;;;;;;14.29;60.07;99125.44;4436210;32;34286;-63
2022/11/05 13:26:59;;;;;;;;;;;;;;;14.33;60.61;99131.38;4436227;32;35123;-63
2022/11/05 13:29:30;;;;;;;;;;;;;;;14.13;60.67;99134.19;4441437;32;34376;-66
2022/11/05 13:32:37;;;;;;;;;;;;;;;14.15;60.46;99134.03;4421408;32;32853;-64
2022/11/05 13:35:06;;;;;;;;;;;;;;;13.38;62.46;99135.28;4402183;32;33427;-64
2022/11/05 13:40:23;;;;;;;;;;;;;;;13.51;61.52;99120.56;4420180;32;32986;-64
2022/11/05 13:43:09;;;;;;;;;;;;;;;13.57;61.54;99123.63;4434429;32;35419;-64
2022/11/05 13:45:56;;;;;;;;;;;;;;;13.36;62.61;99135.47;4442429;32;33708;-65